Weather at Torchlake Heliport

Public forecast

Using degrees Fahrenheit for public forecast. Weather courtesy of forecast.io.

Closest aviation weather report (METAR) to Torchlake Heliport

Closest report is Antrim County Airport, 5.9 nm (10.8 km) ESE. Retrieved 2021/10/28 13:35 UTC (1 hour ago):

KACB 281335Z AUTO 00000KT 10SM SCT014 10/09 A2987 RMK AO2 T01040086

Closest aviation forecast (TAF) to Torchlake Heliport

Closest forecast is Cherry Capital Airport, 20.3 nm (37.6 km) SSW. Retrieved 2021/10/28 12:36 UTC (2 hours ago):

TAF KTVC 281135Z 2812/2912 VRB04KT P6SM OVC015 FM281500 09007KT P6SM OVC026 FM281600 09007KT P6SM BKN050 FM290600 VRB04KT P6SM BKN070 FM290900 VRB04KT P6SM BKN030